Time;durP1;ratioP1;P1;durP2;ratioP2;P2;SDS_P1;SDS_P2;PMS_P1;PMS_P2;Temp;Humidity;BMP_temperature;BMP_pressure;BME280_temperature;BME280_humidity;BME280_pressure;Samples;Min_cycle;Max_cycle;Signal;HPM_P1;HPM_P2
2021/11/14 00:01:25;;;;;;;0.28;0.17;;;20.50;53.00;;;;;;5072841;28;20092;-67
2021/11/14 00:03:52;;;;;;;1.95;0.10;;;20.50;52.50;;;;;;5067931;28;20139;-66
2021/11/14 00:06:21;;;;;;;16.77;0.38;;;20.50;52.50;;;;;;5068289;28;20079;-65
2021/11/14 00:08:49;;;;;;;4.00;1.13;;;20.60;52.50;;;;;;5071362;28;20036;-65
2021/11/14 00:11:19;;;;;;;1.60;0.43;;;20.60;52.50;;;;;;5069724;28;20053;-65
2021/11/14 00:13:48;;;;;;;2.30;0.30;;;20.60;52.50;;;;;;5066245;28;20041;-65
2021/11/14 00:16:17;;;;;;;6.55;0.20;;;20.60;52.40;;;;;;5065095;28;20183;-67
2021/11/14 00:18:45;;;;;;;3.15;0.68;;;20.60;52.30;;;;;;5048917;28;20946;-65
2021/11/14 00:21:15;;;;;;;1.63;0.22;;;20.60;52.30;;;;;;5067426;28;20451;-67
2021/11/14 00:23:43;;;;;;;3.58;0.20;;;20.70;52.30;;;;;;5079212;28;20049;-65
2021/11/14 00:26:11;;;;;;;1.98;1.08;;;20.70;52.30;;;;;;5070505;28;20552;-64
2021/11/14 00:28:42;;;;;;;1.90;0.20;;;20.70;52.20;;;;;;5068246;28;20044;-64
2021/11/14 00:31:15;;;;;;;1.80;0.10;;;20.70;52.20;;;;;;5054366;28;20421;-65
2021/11/14 00:33:43;;;;;;;1.50;0.40;;;20.70;52.20;;;;;;5047087;28;20501;-65
2021/11/14 00:36:11;;;;;;;2.47;0.20;;;20.70;52.20;;;;;;5072028;28;20090;-67
2021/11/14 00:38:39;;;;;;;0.30;0.10;;;20.70;52.10;;;;;;5073240;28;20129;-69
2021/11/14 00:41:08;;;;;;;0.75;0.30;;;20.70;52.10;;;;;;5071278;28;20041;-69
2021/11/14 00:43:35;;;;;;;7.05;0.40;;;20.70;52.10;;;;;;5065889;28;20036;-69
2021/11/14 00:46:03;;;;;;;5.13;0.30;;;20.70;52.10;;;;;;5079433;28;20048;-68
2021/11/14 00:48:30;;;;;;;3.40;0.20;;;20.70;52.00;;;;;;5072544;28;20163;-68
2021/11/14 00:51:00;;;;;;;0.88;0.10;;;20.70;52.00;;;;;;5081228;28;20051;-69
2021/11/14 00:53:27;;;;;;;1.90;0.60;;;20.70;52.00;;;;;;5068695;28;20083;-69
2021/11/14 00:55:55;;;;;;;3.28;0.20;;;20.70;52.00;;;;;;5074159;28;20670;-67
2021/11/14 00:58:25;;;;;;;2.05;0.20;;;20.70;52.00;;;;;;5080781;28;20086;-66
2021/11/14 01:00:53;;;;;;;0.30;0.20;;;20.70;52.00;;;;;;5050262;28;20044;-66
2021/11/14 01:03:20;;;;;;;1.75;0.10;;;20.70;52.00;;;;;;5052697;28;20037;-66
2021/11/14 01:05:48;;;;;;;2.50;0.13;;;20.70;52.00;;;;;;5074627;28;20044;-66
2021/11/14 01:08:15;;;;;;;0.45;0.30;;;20.70;52.00;;;;;;5052516;28;20036;-65
2021/11/14 01:10:45;;;;;;;0.93;0.17;;;20.70;52.00;;;;;;5044782;28;20096;-65
2021/11/14 01:13:12;;;;;;;0.77;0.38;;;20.70;52.00;;;;;;5063077;28;20037;-63
2021/11/14 01:15:42;;;;;;;0.55;0.20;;;20.70;52.00;;;;;;5071804;28;20055;-65
2021/11/14 01:18:09;;;;;;;1.85;0.10;;;20.70;52.00;;;;;;5065323;28;20040;-64
2021/11/14 01:20:40;;;;;;;1.65;1.10;;;20.70;52.00;;;;;;5069261;28;20136;-65
2021/11/14 01:23:09;;;;;;;0.43;0.10;;;20.70;52.10;;;;;;5073886;28;20122;-64
2021/11/14 01:25:36;;;;;;;3.53;0.10;;;20.70;52.10;;;;;;5072407;28;20052;-63
2021/11/14 01:28:04;;;;;;;2.45;0.10;;;20.70;52.10;;;;;;5065508;28;20077;-66
2021/11/14 01:30:34;;;;;;;4.68;0.22;;;20.70;52.10;;;;;;5069819;28;20129;-67
2021/11/14 01:33:05;;;;;;;0.10;0.10;;;20.80;52.10;;;;;;5073177;28;20045;-68
2021/11/14 01:35:33;;;;;;;1.42;0.10;;;20.70;52.10;;;;;;5055371;28;20059;-67
2021/11/14 01:38:00;;;;;;;0.50;0.10;;;20.70;52.10;;;;;;5062498;28;20048;-68
2021/11/14 01:40:31;;;;;;;0.30;0.10;;;20.70;52.10;;;;;;5046782;28;20045;-70
2021/11/14 01:42:59;;;;;;;0.50;0.28;;;20.70;52.10;;;;;;5063165;28;20129;-68
2021/11/14 01:45:26;;;;;;;3.63;0.10;;;20.70;52.20;;;;;;5069191;28;20412;-66
2021/11/14 01:47:53;;;;;;;4.05;1.08;;;20.70;52.20;;;;;;5064574;28;20072;-66
2021/11/14 01:50:23;;;;;;;1.55;0.10;;;20.70;52.20;;;;;;5071737;28;20106;-66
2021/11/14 01:52:52;;;;;;;1.77;0.30;;;20.70;52.20;;;;;;5062999;28;20630;-67
2021/11/14 01:55:23;;;;;;;1.40;0.17;;;20.70;52.20;;;;;;5046288;28;20071;-66
2021/11/14 01:57:52;;;;;;;2.47;0.10;;;20.70;52.30;;;;;;5071285;28;20044;-67
2021/11/14 02:00:23;;;;;;;0.93;0.10;;;20.70;52.30;;;;;;5062698;28;20044;-64
2021/11/14 02:02:50;;;;;;;0.22;0.17;;;20.70;52.40;;;;;;5065499;28;20041;-63
2021/11/14 02:05:22;;;;;;;2.28;0.10;;;20.70;52.40;;;;;;5070109;28;20033;-62
2021/11/14 02:07:52;;;;;;;0.30;0.10;;;20.70;52.50;;;;;;5062859;28;20051;-64
2021/11/14 02:10:20;;;;;;;0.95;0.20;;;20.70;52.60;;;;;;5063481;28;20040;-63
2021/11/14 02:12:47;;;;;;;1.92;0.20;;;20.70;53.20;;;;;;5064797;28;20040;-64
2021/11/14 02:15:14;;;;;;;0.30;0.30;;;20.60;52.60;;;;;;5073478;28;20040;-63
2021/11/14 02:17:41;;;;;;;1.30;0.10;;;20.60;52.70;;;;;;5065238;28;20153;-63
2021/11/14 02:20:11;;;;;;;1.10;0.20;;;20.60;52.70;;;;;;5069421;28;20036;-64
2021/11/14 02:22:39;;;;;;;0.15;0.10;;;20.60;52.80;;;;;;5062820;28;20135;-63
2021/11/14 02:25:08;;;;;;;0.20;0.10;;;20.60;52.80;;;;;;5066952;28;20079;-64
2021/11/14 02:27:35;;;;;;;0.73;0.10;;;20.60;52.80;;;;;;5068283;28;20044;-64
2021/11/14 02:30:07;;;;;;;0.35;0.15;;;20.60;52.80;;;;;;5071994;28;20149;-63
2021/11/14 02:32:35;;;;;;;0.40;0.10;;;20.60;52.90;;;;;;5070135;28;20043;-64
2021/11/14 02:35:02;;;;;;;0.17;0.10;;;20.60;52.90;;;;;;5066799;28;20051;-63
2021/11/14 02:37:31;;;;;;;0.15;0.15;;;20.60;52.90;;;;;;5063897;28;20389;-63
2021/11/14 02:39:58;;;;;;;0.10;0.10;;;20.60;52.90;;;;;;5074449;28;20036;-62
2021/11/14 02:42:27;;;;;;;0.68;0.10;;;20.60;52.90;;;;;;5066722;28;20036;-64
2021/11/14 02:44:54;;;;;;;1.85;0.20;;;20.60;52.90;;;;;;5068888;28;20043;-64
2021/11/14 02:47:21;;;;;;;0.32;0.20;;;20.60;52.90;;;;;;5069798;28;20076;-69
2021/11/14 02:49:48;;;;;;;6.20;0.10;;;20.60;53.00;;;;;;5051584;28;20047;-70
2021/11/14 02:52:16;;;;;;;1.30;0.10;;;20.60;53.00;;;;;;5061692;28;20045;-69
2021/11/14 02:54:44;;;;;;;0.65;0.10;;;20.60;53.10;;;;;;5066063;28;26429;-69
2021/11/14 02:57:12;;;;;;;0.10;0.10;;;20.60;53.00;;;;;;5064782;28;20060;-70
2021/11/14 02:59:39;;;;;;;2.38;0.20;;;20.60;53.00;;;;;;5062737;28;20049;-69
2021/11/14 03:02:07;;;;;;;0.35;0.10;;;20.60;53.10;;;;;;5063810;28;20056;-68
2021/11/14 03:04:34;;;;;;;0.52;0.10;;;20.60;53.10;;;;;;5075796;28;20098;-68
2021/11/14 03:07:01;;;;;;;1.15;0.10;;;20.60;53.70;;;;;;5063703;28;20053;-69
2021/11/14 03:09:29;;;;;;;0.20;0.20;;;20.60;53.10;;;;;;5068194;28;20064;-68
2021/11/14 03:11:59;;;;;;;0.40;0.10;;;20.60;53.00;;;;;;5069332;28;20413;-69
2021/11/14 03:14:45;;;;;;;1.33;0.10;;;20.60;53.00;;;;;;5083082;28;20419;-68
2021/11/14 03:17:12;;;;;;;0.47;0.10;;;20.60;52.90;;;;;;5071480;28;20072;-69
2021/11/14 03:19:39;;;;;;;0.10;0.10;;;20.60;52.90;;;;;;5070266;28;20044;-68
2021/11/14 03:22:08;;;;;;;0.50;0.10;;;20.60;52.90;;;;;;5074401;28;20496;-64
2021/11/14 03:24:35;;;;;;;1.33;0.17;;;20.70;52.90;;;;;;5080006;28;26174;-63
2021/11/14 03:27:04;;;;;;;0.77;0.10;;;20.70;53.00;;;;;;5076425;28;20051;-64
2021/11/14 03:29:31;;;;;;;0.68;0.10;;;20.60;53.00;;;;;;5063432;28;20127;-63
2021/11/14 03:31:58;;;;;;;0.10;0.10;;;20.60;53.00;;;;;;5078947;28;20512;-64
2021/11/14 03:34:25;;;;;;;0.40;0.17;;;20.50;53.00;;;;;;5072285;28;20166;-65
2021/11/14 03:36:52;;;;;;;0.68;0.68;;;20.50;53.70;;;;;;5072029;28;20047;-65
2021/11/14 03:39:19;;;;;;;0.10;0.10;;;20.50;53.20;;;;;;5084723;28;20106;-64
2021/11/14 03:41:46;;;;;;;0.73;0.20;;;20.50;53.20;;;;;;5071924;28;20167;-66
2021/11/14 03:44:14;;;;;;;6.28;0.10;;;20.50;53.30;;;;;;5076161;28;20044;-68
2021/11/14 03:46:42;;;;;;;1.23;0.10;;;20.50;53.30;;;;;;5077898;28;20044;-68
2021/11/14 03:49:09;;;;;;;0.20;0.10;;;20.50;53.50;;;;;;5080984;28;20039;-69
2021/11/14 03:51:36;;;;;;;0.98;0.20;;;20.50;53.40;;;;;;5088041;28;20096;-68
2021/11/14 03:54:04;;;;;;;1.63;0.10;;;20.50;53.40;;;;;;5070526;28;20041;-66
2021/11/14 03:56:33;;;;;;;0.85;0.10;;;20.50;53.20;;;;;;5071989;28;20067;-67
2021/11/14 03:59:01;;;;;;;1.17;0.10;;;20.60;53.30;;;;;;5069927;28;20040;-67
2021/11/14 04:01:29;;;;;;;1.02;0.25;;;20.60;53.20;;;;;;5075033;28;20139;-66
2021/11/14 04:03:56;;;;;;;5.43;0.43;;;20.60;53.20;;;;;;5068650;28;20043;-66
2021/11/14 04:06:24;;;;;;;0.20;0.10;;;20.60;53.20;;;;;;5051799;28;20057;-67
2021/11/14 04:08:53;;;;;;;3.05;0.10;;;20.60;53.20;;;;;;5072938;28;20044;-66
2021/11/14 04:11:21;;;;;;;2.30;0.50;;;20.60;53.10;;;;;;5078081;28;20101;-66
2021/11/14 04:13:48;;;;;;;0.20;0.10;;;20.60;53.20;;;;;;5076593;28;20127;-67
2021/11/14 04:16:15;;;;;;;0.95;0.17;;;20.60;53.10;;;;;;5080072;28;20051;-67
2021/11/14 04:18:44;;;;;;;1.30;0.90;;;20.60;53.10;;;;;;5071988;28;20040;-67
2021/11/14 04:21:11;;;;;;;1.35;0.10;;;20.60;53.10;;;;;;5087653;28;20072;-67
2021/11/14 04:23:39;;;;;;;0.30;0.10;;;20.60;53.10;;;;;;5071527;28;20771;-67
2021/11/14 04:26:07;;;;;;;0.45;0.10;;;20.60;53.10;;;;;;5070554;28;20136;-66
2021/11/14 04:28:35;;;;;;;2.15;0.10;;;20.50;53.10;;;;;;5071241;28;20036;-65
2021/11/14 04:31:02;;;;;;;0.52;0.10;;;20.60;53.20;;;;;;5070804;28;20032;-65
2021/11/14 04:33:30;;;;;;;1.13;0.10;;;20.60;53.10;;;;;;5070720;28;20045;-65
2021/11/14 04:35:58;;;;;;;3.72;0.20;;;20.60;53.10;;;;;;5076845;28;20044;-62
2021/11/14 04:38:26;;;;;;;0.10;0.10;;;20.60;53.10;;;;;;5073227;28;20040;-65
2021/11/14 04:40:53;;;;;;;1.10;0.10;;;20.60;53.10;;;;;;5071377;28;20511;-65
2021/11/14 04:43:21;;;;;;;1.65;0.10;;;20.60;53.70;;;;;;5070374;28;20044;-64
2021/11/14 04:45:50;;;;;;;0.35;0.25;;;20.60;53.00;;;;;;5066240;28;20044;-65
2021/11/14 04:48:17;;;;;;;1.10;0.10;;;20.60;53.10;;;;;;5079313;28;20051;-65
2021/11/14 04:50:44;;;;;;;1.63;0.10;;;20.60;53.00;;;;;;5064622;28;20037;-65
2021/11/14 04:53:13;;;;;;;1.00;0.17;;;20.60;53.00;;;;;;5076612;28;20151;-64
2021/11/14 04:55:41;;;;;;;1.17;0.20;;;20.60;53.00;;;;;;5065170;28;20048;-68
2021/11/14 04:58:10;;;;;;;0.52;0.10;;;20.60;53.00;;;;;;5064095;28;20037;-67
2021/11/14 05:00:39;;;;;;;0.80;0.10;;;20.60;53.10;;;;;;5052715;28;20123;-68
2021/11/14 05:03:07;;;;;;;0.73;0.30;;;20.60;53.20;;;;;;5073021;28;20496;-68
2021/11/14 05:05:36;;;;;;;3.95;0.17;;;20.60;53.20;;;;;;5066265;28;20045;-68
2021/11/14 05:08:04;;;;;;;0.32;0.10;;;20.50;53.20;;;;;;5062435;28;20043;-66
2021/11/14 05:10:33;;;;;;;2.10;0.20;;;20.50;53.20;;;;;;5070689;28;20570;-67
2021/11/14 05:13:00;;;;;;;1.05;0.52;;;20.50;53.20;;;;;;5068389;28;20144;-67
2021/11/14 05:15:27;;;;;;;0.20;0.13;;;20.60;53.20;;;;;;5080249;28;20043;-67
2021/11/14 05:17:54;;;;;;;0.73;0.20;;;20.60;53.30;;;;;;5071129;28;20040;-66
2021/11/14 05:20:22;;;;;;;0.22;0.10;;;20.50;53.20;;;;;;5069429;28;20051;-66
2021/11/14 05:22:49;;;;;;;0.28;0.13;;;20.50;53.30;;;;;;5051421;28;20067;-67
2021/11/14 05:25:16;;;;;;;0.20;0.10;;;20.50;53.30;;;;;;5072661;28;20050;-67
2021/11/14 05:27:45;;;;;;;1.27;0.30;;;20.50;53.30;;;;;;5066643;28;20047;-66
2021/11/14 05:30:12;;;;;;;2.28;0.10;;;20.50;53.30;;;;;;5066226;28;20532;-69
2021/11/14 05:32:40;;;;;;;1.05;0.10;;;20.50;53.30;;;;;;5050742;28;20094;-68
2021/11/14 05:35:09;;;;;;;0.13;0.00;;;20.50;53.40;;;;;;5052134;28;20032;-69
2021/11/14 05:37:37;;;;;;;3.60;0.10;;;20.50;53.40;;;;;;5072095;28;20066;-69
2021/11/14 05:40:06;;;;;;;0.52;0.20;;;20.50;53.30;;;;;;5062459;28;20040;-70
2021/11/14 05:42:33;;;;;;;2.75;0.20;;;20.50;53.40;;;;;;5071448;28;20106;-70
2021/11/14 05:45:03;;;;;;;4.03;0.20;;;20.50;53.40;;;;;;5082531;28;20114;-67
2021/11/14 05:47:30;;;;;;;0.32;0.10;;;20.50;53.50;;;;;;5065992;28;20040;-67
2021/11/14 05:49:57;;;;;;;0.50;0.10;;;20.50;53.50;;;;;;5073382;28;20040;-68
2021/11/14 05:52:24;;;;;;;0.45;0.10;;;20.50;53.50;;;;;;5070845;28;20044;-67
2021/11/14 05:54:51;;;;;;;0.80;0.10;;;20.50;53.40;;;;;;5079135;28;20040;-66
2021/11/14 05:57:18;;;;;;;0.50;0.30;;;20.50;53.50;;;;;;5068523;28;20048;-65
2021/11/14 05:59:52;;;;;;;1.52;0.10;;;20.50;53.50;;;;;;5072375;28;20044;-65
2021/11/14 06:02:32;;;;;;;2.67;0.20;;;20.50;53.50;;;;;;5074729;28;20568;-66
2021/11/14 06:05:03;;;;;;;0.20;0.10;;;20.50;53.60;;;;;;5062663;28;20584;-66
2021/11/14 06:07:31;;;;;;;1.33;0.30;;;20.50;53.70;;;;;;5064908;28;20051;-65
2021/11/14 06:10:00;;;;;;;0.25;0.10;;;20.50;53.70;;;;;;5066166;28;20037;-65
2021/11/14 06:12:27;;;;;;;0.98;0.10;;;20.50;53.70;;;;;;5066847;28;20449;-65
2021/11/14 06:14:54;;;;;;;0.00;0.00;;;20.50;53.70;;;;;;5071734;28;20037;-65
2021/11/14 06:17:23;;;;;;;0.30;0.30;;;20.50;53.70;;;;;;5078843;28;20055;-65
2021/11/14 06:19:50;;;;;;;0.52;0.20;;;20.50;53.80;;;;;;5071090;28;20043;-66
2021/11/14 06:22:18;;;;;;;0.10;0.10;;;20.50;53.80;;;;;;5069022;28;20040;-66
2021/11/14 06:24:46;;;;;;;0.40;0.10;;;20.50;53.70;;;;;;5066615;28;20048;-65
2021/11/14 06:27:13;;;;;;;0.32;0.20;;;20.50;53.80;;;;;;5072873;28;20509;-65
2021/11/14 06:29:40;;;;;;;1.40;0.10;;;20.50;53.70;;;;;;5077154;28;20048;-63
2021/11/14 06:32:08;;;;;;;2.10;0.20;;;20.50;53.70;;;;;;5074387;28;20501;-62
2021/11/14 06:34:37;;;;;;;0.60;0.10;;;20.50;53.70;;;;;;5076133;28;20032;-63
2021/11/14 06:37:04;;;;;;;1.50;0.10;;;20.50;53.70;;;;;;5075759;28;20048;-63
2021/11/14 06:39:31;;;;;;;0.30;0.10;;;20.50;53.70;;;;;;5067427;28;20040;-64
2021/11/14 06:41:58;;;;;;;0.65;0.13;;;20.50;53.70;;;;;;5075920;28;20043;-63
2021/11/14 06:44:26;;;;;;;0.65;0.30;;;20.50;53.70;;;;;;5078357;28;20237;-64
2021/11/14 06:46:55;;;;;;;6.20;0.10;;;20.50;53.80;;;;;;5065714;28;20135;-67
2021/11/14 06:49:22;;;;;;;0.73;0.10;;;20.50;53.80;;;;;;5073345;28;20560;-66
2021/11/14 06:51:52;;;;;;;0.25;0.25;;;20.50;53.90;;;;;;5075306;28;20040;-70
2021/11/14 06:54:19;;;;;;;3.70;0.20;;;20.50;53.90;;;;;;5068409;28;20128;-67
2021/11/14 06:56:47;;;;;;;0.50;0.10;;;20.50;53.90;;;;;;5065876;28;20063;-71
2021/11/14 06:59:14;;;;;;;0.20;0.10;;;20.50;53.90;;;;;;5070962;28;20127;-71
2021/11/14 07:01:41;;;;;;;0.47;0.10;;;20.50;54.00;;;;;;5067485;28;20052;-71
2021/11/14 07:04:08;;;;;;;0.60;0.10;;;20.50;54.00;;;;;;5067304;28;20527;-70
2021/11/14 07:06:37;;;;;;;1.45;0.10;;;20.50;54.00;;;;;;5052302;28;20775;-67
2021/11/14 07:09:07;;;;;;;0.43;0.10;;;20.50;54.00;;;;;;5039168;28;20052;-67
2021/11/14 07:11:34;;;;;;;0.20;0.10;;;20.50;54.00;;;;;;5077213;28;20059;-67
2021/11/14 07:14:01;;;;;;;1.40;0.10;;;20.50;54.00;;;;;;5070079;28;20036;-69
2021/11/14 07:16:29;;;;;;;2.83;0.10;;;20.50;54.10;;;;;;5069354;28;20696;-64
2021/11/14 07:18:57;;;;;;;0.38;0.10;;;20.50;54.00;;;;;;5069743;28;20148;-65
2021/11/14 07:21:24;;;;;;;0.55;0.10;;;20.60;54.10;;;;;;5069338;28;20052;-65
2021/11/14 07:23:51;;;;;;;0.98;0.10;;;20.60;54.10;;;;;;5070479;28;20067;-66
2021/11/14 07:26:20;;;;;;;0.05;0.05;;;20.60;54.10;;;;;;5068104;28;20083;-67
2021/11/14 07:28:46;;;;;;;0.73;0.13;;;20.60;54.10;;;;;;5071009;28;20162;-69
2021/11/14 07:31:14;;;;;;;1.90;0.25;;;20.60;54.10;;;;;;5068222;28;20044;-66
2021/11/14 07:33:41;;;;;;;0.10;0.10;;;20.60;54.10;;;;;;5065161;28;20036;-68
2021/11/14 07:36:09;;;;;;;0.10;0.10;;;20.60;54.10;;;;;;5075716;28;20054;-68
2021/11/14 07:38:37;;;;;;;0.63;0.10;;;20.60;54.10;;;;;;5048503;28;20044;-69
2021/11/14 07:41:04;;;;;;;5.78;0.40;;;20.50;54.10;;;;;;5049860;28;20048;-67
2021/11/14 07:43:32;;;;;;;3.50;0.32;;;20.50;54.20;;;;;;5072443;28;20044;-66
2021/11/14 07:45:59;;;;;;;1.08;0.20;;;20.50;54.30;;;;;;5068519;28;20035;-65
2021/11/14 07:48:26;;;;;;;0.88;0.35;;;20.50;54.40;;;;;;5063462;28;20051;-65
2021/11/14 07:50:54;;;;;;;5.35;0.10;;;20.50;54.50;;;;;;5068605;28;20055;-64
2021/11/14 07:53:22;;;;;;;1.17;0.10;;;20.50;54.40;;;;;;5069250;28;20040;-64
2021/11/14 07:55:50;;;;;;;0.38;0.38;;;20.50;54.50;;;;;;5086427;28;20036;-64
2021/11/14 07:58:17;;;;;;;2.20;0.10;;;20.60;54.60;;;;;;5083680;28;20046;-70
2021/11/14 08:00:46;;;;;;;1.00;0.10;;;20.60;54.60;;;;;;5087507;28;20593;-65
2021/11/14 08:03:14;;;;;;;2.42;0.10;;;20.60;54.50;;;;;;5087377;28;20044;-62
2021/11/14 08:05:42;;;;;;;0.63;0.30;;;20.50;54.50;;;;;;5088064;28;20066;-63
2021/11/14 08:08:10;;;;;;;0.95;0.30;;;20.50;54.60;;;;;;5086606;28;20903;-65
2021/11/14 08:10:38;;;;;;;16.40;0.43;;;20.50;54.80;;;;;;5084188;28;20048;-64
2021/11/14 08:13:06;;;;;;;7.07;0.63;;;20.50;54.90;;;;;;5088862;28;20054;-64
2021/11/14 08:15:35;;;;;;;4.15;0.20;;;20.50;55.00;;;;;;5085779;28;20075;-56
2021/11/14 08:18:04;;;;;;;5.22;1.50;;;20.50;55.00;;;;;;5087930;28;20112;-52
2021/11/14 08:20:33;;;;;;;6.68;1.58;;;20.50;55.50;;;;;;5089223;28;20105;-63
2021/11/14 08:23:00;;;;;;;11.10;1.52;;;20.50;55.70;;;;;;5085966;28;20568;-65
2021/11/14 08:25:28;;;;;;;6.45;0.68;;;20.50;55.90;;;;;;5085558;28;20052;-64
2021/11/14 08:27:56;;;;;;;5.65;1.67;;;20.50;56.00;;;;;;5082887;28;20377;-64
2021/11/14 08:30:23;;;;;;;6.55;1.42;;;20.50;55.90;;;;;;5090592;28;20045;-63
2021/11/14 08:32:51;;;;;;;4.13;1.02;;;20.50;55.90;;;;;;5110186;27;20043;-63
2021/11/14 08:35:22;;;;;;;3.22;0.47;;;20.40;55.80;;;;;;5087472;28;20115;-63
2021/11/14 08:37:52;;;;;;;11.43;1.77;;;20.40;55.80;;;;;;5083876;28;20044;-66
2021/11/14 08:40:20;;;;;;;9.32;0.77;;;20.40;57.50;;;;;;5085044;28;20033;-62
2021/11/14 08:42:47;;;;;;;7.68;0.65;;;20.40;58.40;;;;;;5083877;28;20516;-54
2021/11/14 08:45:14;;;;;;;5.53;1.58;;;20.40;58.90;;;;;;5085430;28;20044;-42
2021/11/14 08:47:41;;;;;;;15.63;0.85;;;20.40;59.50;;;;;;5093590;28;20059;-45
2021/11/14 08:50:11;;;;;;;9.70;1.38;;;20.50;60.50;;;;;;5087157;28;20040;-46
2021/11/14 08:52:44;;;;;;;26.70;2.33;;;20.50;61.00;;;;;;5086521;28;20063;-45
2021/11/14 08:55:12;;;;;;;6.15;1.35;;;20.40;61.40;;;;;;5083849;28;20064;-45
2021/11/14 08:57:39;;;;;;;3.58;0.32;;;20.40;61.70;;;;;;5087477;28;20599;-45
2021/11/14 09:00:08;;;;;;;5.00;0.57;;;20.40;61.90;;;;;;5087053;28;20048;-46
2021/11/14 09:02:35;;;;;;;4.80;0.32;;;20.40;62.10;;;;;;5098779;28;20044;-49
2021/11/14 09:05:03;;;;;;;7.30;0.35;;;20.40;62.30;;;;;;5083419;28;20155;-46
2021/11/14 09:07:30;;;;;;;5.53;0.57;;;20.40;62.40;;;;;;5091533;28;20048;-45
2021/11/14 09:09:58;;;;;;;6.03;0.80;;;20.40;62.60;;;;;;5086680;28;20503;-43
2021/11/14 09:12:25;;;;;;;5.88;0.60;;;20.30;62.50;;;;;;5069090;28;20035;-45
2021/11/14 09:14:52;;;;;;;7.68;0.52;;;20.30;62.60;;;;;;5091225;28;20113;-47
2021/11/14 09:17:20;;;;;;;4.25;0.60;;;20.30;62.60;;;;;;5081464;28;20405;-46
2021/11/14 09:19:47;;;;;;;1.27;0.65;;;20.30;62.70;;;;;;5087859;28;20535;-46
2021/11/14 09:22:14;;;;;;;2.95;0.35;;;20.40;62.80;;;;;;5094548;28;20066;-45
2021/11/14 09:24:42;;;;;;;5.70;0.82;;;20.30;62.60;;;;;;5084271;28;20055;-45
2021/11/14 09:27:10;;;;;;;2.35;1.20;;;20.30;62.60;;;;;;5090849;28;20050;-44
2021/11/14 09:29:37;;;;;;;0.60;0.20;;;20.30;62.60;;;;;;5084225;28;20036;-48
2021/11/14 09:32:06;;;;;;;3.67;0.45;;;20.30;62.60;;;;;;5082967;28;20066;-45
2021/11/14 09:34:34;;;;;;;4.18;0.35;;;20.30;62.50;;;;;;5082830;28;20064;-46
2021/11/14 09:37:01;;;;;;;1.98;0.73;;;20.30;62.60;;;;;;5084980;28;20135;-47
2021/11/14 09:39:29;;;;;;;1.08;0.40;;;20.30;63.10;;;;;;5084189;28;20044;-48
2021/11/14 09:41:56;;;;;;;4.82;0.30;;;20.30;62.50;;;;;;5090370;28;20036;-46
2021/11/14 09:44:25;;;;;;;1.48;0.20;;;20.30;62.40;;;;;;5090441;28;20081;-47
2021/11/14 09:46:54;;;;;;;1.15;0.20;;;20.30;62.40;;;;;;5095273;28;20046;-45
2021/11/14 09:49:26;;;;;;;1.45;0.50;;;20.30;62.30;;;;;;5089867;28;20044;-51
2021/11/14 09:51:56;;;;;;;1.08;0.20;;;20.30;62.30;;;;;;5083259;28;20070;-46
2021/11/14 09:54:24;;;;;;;1.40;0.20;;;20.30;62.30;;;;;;5103677;28;20036;-47
2021/11/14 09:56:52;;;;;;;1.52;0.70;;;20.30;62.30;;;;;;5094778;28;20046;-44
2021/11/14 09:59:21;;;;;;;3.85;0.35;;;20.30;62.10;;;;;;5083647;28;20123;-48
2021/11/14 10:01:51;;;;;;;0.95;0.35;;;20.30;62.10;;;;;;5090601;28;20075;-45
2021/11/14 10:04:19;;;;;;;0.30;0.10;;;20.30;62.10;;;;;;5097267;28;20040;-43
2021/11/14 10:06:55;;;;;;;0.40;0.10;;;20.30;62.00;;;;;;5085960;28;20067;-43
2021/11/14 10:09:28;;;;;;;;;;;20.30;62.00;;;;;;5086745;28;20067;-44
2021/11/14 10:11:55;;;;;;;2.55;0.30;;;20.20;61.80;;;;;;5086956;28;20403;-47
2021/11/14 10:14:23;;;;;;;1.00;0.10;;;20.20;61.90;;;;;;5090702;28;20066;-44
2021/11/14 10:16:51;;;;;;;0.30;0.10;;;20.20;61.90;;;;;;5091237;28;20046;-45
2021/11/14 10:19:19;;;;;;;0.20;0.20;;;20.20;61.80;;;;;;5070105;28;20109;-45
2021/11/14 10:21:48;;;;;;;0.52;0.10;;;20.20;61.80;;;;;;5090824;28;20048;-45
2021/11/14 10:24:15;;;;;;;4.32;0.30;;;20.20;61.70;;;;;;5088403;28;20044;-45
2021/11/14 10:26:42;;;;;;;0.85;0.35;;;20.20;61.60;;;;;;5082214;28;20725;-45
2021/11/14 10:29:11;;;;;;;0.60;0.20;;;20.10;61.50;;;;;;5069832;28;20051;-45
2021/11/14 10:31:39;;;;;;;0.82;0.28;;;20.20;61.50;;;;;;5082299;28;20881;-47
2021/11/14 10:34:08;;;;;;;0.45;0.20;;;20.20;61.50;;;;;;5091567;28;20084;-44
2021/11/14 10:36:36;;;;;;;1.38;0.20;;;20.20;61.40;;;;;;5085366;28;20446;-47
2021/11/14 10:39:06;;;;;;;0.95;0.20;;;20.10;61.30;;;;;;5102229;28;20071;-48
2021/11/14 10:41:33;;;;;;;2.03;0.38;;;20.10;61.80;;;;;;5087854;28;20047;-48
2021/11/14 10:44:09;;;;;;;2.63;0.20;;;20.10;61.20;;;;;;5089664;28;20038;-44
2021/11/14 10:46:38;;;;;;;0.55;0.20;;;20.10;61.10;;;;;;5086057;28;20798;-46
2021/11/14 10:49:07;;;;;;;1.27;0.20;;;20.10;61.00;;;;;;5094433;28;20033;-48
2021/11/14 10:51:36;;;;;;;1.63;0.30;;;20.10;60.90;;;;;;5083813;28;20051;-46
2021/11/14 10:54:03;;;;;;;0.63;0.22;;;20.10;60.90;;;;;;5086641;28;20044;-48
2021/11/14 10:56:30;;;;;;;0.93;0.40;;;20.10;60.70;;;;;;5068304;28;20124;-46
2021/11/14 10:58:57;;;;;;;0.73;0.20;;;20.10;60.60;;;;;;5083125;28;20633;-42
2021/11/14 11:01:25;;;;;;;0.65;0.20;;;20.10;60.50;;;;;;5083450;28;20524;-42
2021/11/14 11:03:54;;;;;;;0.25;0.20;;;20.10;60.40;;;;;;5081834;28;20059;-43
2021/11/14 11:06:26;;;;;;;1.02;0.40;;;20.10;60.30;;;;;;5073400;28;20059;-43
2021/11/14 11:08:57;;;;;;;0.47;0.47;;;20.20;60.30;;;;;;5089218;28;20060;-42
2021/11/14 11:11:25;;;;;;;0.68;0.35;;;20.10;60.20;;;;;;5094211;28;20043;-44
2021/11/14 11:13:53;;;;;;;0.60;0.20;;;20.10;60.10;;;;;;5093253;28;20056;-42
2021/11/14 11:16:22;;;;;;;0.57;0.50;;;20.10;60.00;;;;;;5070887;28;20047;-43
2021/11/14 11:18:58;;;;;;;0.47;0.35;;;20.10;59.90;;;;;;5084173;28;20036;-43
2021/11/14 11:21:29;;;;;;;0.65;0.10;;;20.20;59.90;;;;;;5084233;28;20048;-45
2021/11/14 11:24:06;;;;;;;0.30;0.30;;;20.10;59.70;;;;;;5090644;28;20481;-45
2021/11/14 11:26:34;;;;;;;0.80;0.40;;;20.10;59.70;;;;;;5097401;28;20519;-43
2021/11/14 11:29:01;;;;;;;1.08;0.20;;;20.10;59.60;;;;;;5083231;28;20123;-46
2021/11/14 11:31:28;;;;;;;1.38;0.20;;;20.10;59.50;;;;;;5084892;28;20420;-42
2021/11/14 11:33:55;;;;;;;0.88;0.25;;;20.10;59.40;;;;;;5083658;28;20036;-41
2021/11/14 11:36:25;;;;;;;0.65;0.65;;;20.10;59.30;;;;;;5099209;28;20466;-42
2021/11/14 11:38:52;;;;;;;0.50;0.25;;;20.20;59.30;;;;;;5088029;28;20076;-43
2021/11/14 11:41:20;;;;;;;0.30;0.30;;;20.10;59.20;;;;;;5083140;28;20036;-44
2021/11/14 11:43:49;;;;;;;0.85;0.28;;;20.20;59.10;;;;;;5088233;28;20172;-47
2021/11/14 11:46:18;;;;;;;1.17;0.30;;;20.20;59.00;;;;;;5093314;28;20140;-44
2021/11/14 11:48:49;;;;;;;0.30;0.22;;;20.20;58.80;;;;;;5087850;28;20040;-47
2021/11/14 11:51:20;;;;;;;0.25;0.20;;;20.20;58.70;;;;;;5090348;28;20045;-46
2021/11/14 11:53:59;;;;;;;0.40;0.30;;;20.20;58.60;;;;;;5092067;28;20454;-50
2021/11/14 11:56:37;;;;;;;0.60;0.20;;;20.20;58.50;;;;;;5087754;28;20141;-43
2021/11/14 11:59:11;;;;;;;1.30;0.40;;;20.20;58.40;;;;;;5089013;28;20040;-43
2021/11/14 12:01:47;;;;;;;0.52;0.40;;;20.20;58.40;;;;;;5090945;28;20043;-45
2021/11/14 12:04:17;;;;;;;0.57;0.40;;;20.20;58.30;;;;;;5100565;28;20036;-43
2021/11/14 12:06:46;;;;;;;0.52;0.52;;;20.20;58.30;;;;;;5087272;28;20040;-43
2021/11/14 12:09:17;;;;;;;0.88;0.43;;;20.20;58.20;;;;;;5088510;28;20040;-43
2021/11/14 12:11:46;;;;;;;1.15;0.40;;;20.20;58.10;;;;;;5099520;28;20047;-43
2021/11/14 12:14:20;;;;;;;2.63;0.80;;;20.20;58.70;;;;;;5094008;28;20701;-44
2021/11/14 12:17:00;;;;;;;1.13;0.60;;;20.20;58.00;;;;;;5091594;28;20039;-43
2021/11/14 12:19:28;;;;;;;3.00;1.05;;;20.20;57.90;;;;;;5096966;28;20067;-45
2021/11/14 12:21:58;;;;;;;3.72;1.58;;;20.20;57.90;;;;;;5084719;28;20063;-46
2021/11/14 12:24:27;;;;;;;1.95;0.82;;;20.20;57.80;;;;;;5086884;28;20389;-43
2021/11/14 12:26:54;;;;;;;3.88;1.25;;;20.20;57.70;;;;;;5101651;28;20040;-43
2021/11/14 12:29:31;;;;;;;3.05;1.42;;;20.20;57.70;;;;;;5094178;28;20050;-43
2021/11/14 12:31:59;;;;;;;4.82;1.85;;;20.20;57.60;;;;;;5082231;28;20063;-46
2021/11/14 12:34:28;;;;;;;4.00;1.38;;;20.20;57.60;;;;;;5087439;28;20125;-46
2021/11/14 12:37:08;;;;;;;6.07;1.88;;;20.20;57.50;;;;;;5099149;28;20126;-45
2021/11/14 12:39:39;;;;;;;5.90;1.98;;;20.20;57.40;;;;;;5087513;28;20046;-46
2021/11/14 12:42:09;;;;;;;6.43;2.40;;;20.20;57.40;;;;;;5095452;28;20048;-48
2021/11/14 12:44:40;;;;;;;8.75;1.55;;;20.20;57.30;;;;;;5096474;28;20040;-43
2021/11/14 12:47:21;;;;;;;4.07;1.73;;;20.20;57.30;;;;;;5090360;28;20035;-45
2021/11/14 12:49:49;;;;;;;5.53;1.92;;;20.20;57.20;;;;;;5088059;28;20040;-47
2021/11/14 12:52:29;;;;;;;5.32;1.52;;;20.20;57.20;;;;;;5091020;28;20040;-48
2021/11/14 12:55:02;;;;;;;7.20;1.88;;;20.20;57.10;;;;;;5076856;28;20139;-43